Time;durP1;ratioP1;P1;durP2;ratioP2;P2;SDS_P1;SDS_P2;PMS_P1;PMS_P2;Temp;Humidity;BMP_temperature;BMP_pressure;BME280_temperature;BME280_humidity;BME280_pressure;Samples;Min_cycle;Max_cycle;Signal;HPM_P1;HPM_P2
2022/06/27 00:01:41;;;;;;;;;;;;;;;-146.27;100.00;64033.13;5092502;28;19916;-46
2022/06/27 00:04:06;;;;;;;;;;;;;;;-146.27;100.00;64033.13;5092437;28;20022;-47
2022/06/27 00:06:31;;;;;;;;;;;;;;;-146.27;100.00;64033.13;5095669;28;19919;-46
2022/06/27 00:08:57;;;;;;;;;;;;;;;-146.27;100.00;64033.13;5111184;28;19933;-47
2022/06/27 00:11:22;;;;;;;;;;;;;;;-146.27;100.00;64033.13;5112463;28;19954;-47
2022/06/27 00:13:48;;;;;;;;;;;;;;;-146.27;100.00;64033.13;5102849;28;19938;-48
2022/06/27 00:16:13;;;;;;;;;;;;;;;-146.27;100.00;64033.13;5092669;28;19918;-49
2022/06/27 00:18:39;;;;;;;;;;;;;;;-146.27;100.00;64033.13;5092373;28;20336;-46
2022/06/27 00:21:04;;;;;;;;;;;;;;;-146.27;100.00;64033.13;5092211;28;19912;-47
2022/06/27 00:23:29;;;;;;;;;;;;;;;-146.27;100.00;64033.13;5092047;28;20350;-47
2022/06/27 00:25:54;;;;;;;;;;;;;;;-146.27;100.00;64033.13;5092395;28;20403;-47
2022/06/27 00:28:20;;;;;;;;;;;;;;;-146.27;100.00;64033.13;5092169;28;20264;-47
2022/06/27 00:30:46;;;;;;;;;;;;;;;-146.27;100.00;64033.13;5092200;28;19916;-47
2022/06/27 00:33:12;;;;;;;;;;;;;;;-146.27;100.00;64033.13;5091758;28;20406;-51
2022/06/27 00:35:37;;;;;;;;;;;;;;;-146.27;100.00;64033.13;5091991;28;19924;-49
2022/06/27 00:38:02;;;;;;;;;;;;;;;-146.27;100.00;64033.13;5090656;28;19919;-47
2022/06/27 00:40:27;;;;;;;;;;;;;;;-146.27;100.00;64033.13;5091880;28;19912;-47
2022/06/27 00:42:53;;;;;;;;;;;;;;;-146.27;100.00;64033.13;5092216;28;19935;-47
2022/06/27 00:45:18;;;;;;;;;;;;;;;-146.27;100.00;64033.13;5091706;28;19912;-47
2022/06/27 00:47:44;;;;;;;;;;;;;;;-146.27;100.00;64033.13;5091790;28;19920;-47
2022/06/27 00:50:09;;;;;;;;;;;;;;;-146.27;100.00;64033.13;5092033;28;19967;-47
2022/06/27 00:52:35;;;;;;;;;;;;;;;-146.27;100.00;64033.13;5092098;28;20256;-49
2022/06/27 00:55:00;;;;;;;;;;;;;;;-146.27;100.00;64033.13;5091729;28;19912;-49
2022/06/27 00:57:27;;;;;;;;;;;;;;;-146.27;100.00;64033.13;5091623;28;19940;-47
2022/06/27 00:59:52;;;;;;;;;;;;;;;-146.27;100.00;64033.13;5091563;28;19942;-47
2022/06/27 01:02:17;;;;;;;;;;;;;;;-146.27;100.00;64033.13;5091655;28;20364;-50
2022/06/27 01:04:43;;;;;;;;;;;;;;;-146.27;100.00;64033.13;5091510;28;20109;-47
2022/06/27 01:07:09;;;;;;;;;;;;;;;-146.27;100.00;64033.13;5099528;28;19923;-47
2022/06/27 01:09:34;;;;;;;;;;;;;;;-146.27;100.00;64033.13;5111316;28;20325;-47
2022/06/27 01:12:00;;;;;;;;;;;;;;;-146.27;100.00;64033.13;5111680;28;19912;-48
2022/06/27 01:14:26;;;;;;;;;;;;;;;-146.27;100.00;64033.13;5094511;28;19961;-47
2022/06/27 01:16:51;;;;;;;;;;;;;;;-146.27;100.00;64033.13;5091252;28;19916;-46
2022/06/27 01:19:17;;;;;;;;;;;;;;;-146.27;100.00;64033.13;5091054;28;19919;-47
2022/06/27 01:21:47;;;;;;;;;;;;;;;-146.27;100.00;64033.13;5091202;28;20067;-46
2022/06/27 01:24:13;;;;;;;;;;;;;;;-146.27;100.00;64033.13;5091444;28;19998;-47
2022/06/27 01:26:40;;;;;;;;;;;;;;;-146.27;100.00;64033.13;5091131;28;19955;-46
2022/06/27 01:29:06;;;;;;;;;;;;;;;-146.27;100.00;64033.13;5091327;28;19942;-47
2022/06/27 01:31:31;;;;;;;;;;;;;;;-146.27;100.00;64033.13;5091481;28;20328;-38
2022/06/27 01:33:57;;;;;;;;;;;;;;;-146.27;100.00;64033.13;5091270;28;20425;-37
2022/06/27 01:39:06;;;;;;;;;;;;;;;-146.27;100.00;64033.13;5091257;28;19923;-38
2022/06/27 01:41:31;;;;;;;;;;;;;;;-146.27;100.00;64033.13;5090694;28;19916;-38
2022/06/27 01:43:56;;;;;;;;;;;;;;;-146.27;100.00;64033.13;5091011;28;20376;-38
2022/06/27 01:46:22;;;;;;;;;;;;;;;-146.27;100.00;64033.13;5091035;28;19912;-39
2022/06/27 01:48:47;;;;;;;;;;;;;;;-146.27;100.00;64033.13;5090773;28;19948;-39
2022/06/27 01:51:12;;;;;;;;;;;;;;;-146.27;100.00;64033.13;5091083;28;19920;-38
2022/06/27 01:53:38;;;;;;;;;;;;;;;-146.27;100.00;64033.13;5091020;28;20006;-38
2022/06/27 01:56:04;;;;;;;;;;;;;;;-146.27;100.00;64033.13;5091075;28;20019;-38
2022/06/27 01:58:29;;;;;;;;;;;;;;;-146.27;100.00;64033.13;5090493;28;19916;-39
2022/06/27 02:00:55;;;;;;;;;;;;;;;-146.27;100.00;64033.13;5090622;28;19912;-39
2022/06/27 02:03:21;;;;;;;;;;;;;;;-146.27;100.00;64033.13;5090767;28;19924;-39
2022/06/27 02:05:47;;;;;;;;;;;;;;;-146.27;100.00;64033.13;5090903;28;19912;-38
2022/06/27 02:08:13;;;;;;;;;;;;;;;-146.27;100.00;64033.13;5090828;28;19969;-38
2022/06/27 02:10:39;;;;;;;;;;;;;;;-146.27;100.00;64033.13;5090474;28;19924;-39
2022/06/27 02:13:04;;;;;;;;;;;;;;;-146.27;100.00;64033.13;5090447;28;19931;-39
2022/06/27 02:15:30;;;;;;;;;;;;;;;-146.27;100.00;64033.13;5090228;28;20011;-37
2022/06/27 02:17:55;;;;;;;;;;;;;;;-146.27;100.00;64033.13;5089921;28;19912;-37
2022/06/27 02:20:21;;;;;;;;;;;;;;;-146.27;100.00;64033.13;5089768;28;19935;-37
2022/06/27 02:22:46;;;;;;;;;;;;;;;-146.27;100.00;64033.13;5093636;28;20362;-37
2022/06/27 02:25:11;;;;;;;;;;;;;;;-146.27;100.00;64033.13;5095402;28;19981;-37
2022/06/27 02:27:38;;;;;;;;;;;;;;;-146.27;100.00;64033.13;5094733;28;19912;-37
2022/06/27 02:30:03;;;;;;;;;;;;;;;-146.27;100.00;64033.13;5094123;28;19952;-38
2022/06/27 02:32:29;;;;;;;;;;;;;;;-146.27;100.00;64033.13;5094723;28;19934;-38
2022/06/27 02:34:55;;;;;;;;;;;;;;;-146.27;100.00;64033.13;5094576;28;19920;-38
2022/06/27 02:37:21;;;;;;;;;;;;;;;-146.27;100.00;64033.13;5094852;28;19923;-38
2022/06/27 02:39:48;;;;;;;;;;;;;;;-146.27;100.00;64033.13;5094762;28;19912;-37
2022/06/27 02:42:14;;;;;;;;;;;;;;;-146.27;100.00;64033.13;5093966;28;20003;-38
2022/06/27 02:44:39;;;;;;;;;;;;;;;-146.27;100.00;64033.13;5094435;28;19919;-38
2022/06/27 02:47:05;;;;;;;;;;;;;;;-146.27;100.00;64033.13;5094426;28;19912;-37
2022/06/27 02:49:30;;;;;;;;;;;;;;;-146.27;100.00;64033.13;5094161;28;19912;-38
2022/06/27 02:52:06;;;;;;;;;;;;;;;-146.27;100.00;64033.13;5093921;28;19920;-38
2022/06/27 02:54:35;;;;;;;;;;;;;;;-146.27;100.00;64033.13;5094092;28;20003;-37
2022/06/27 02:57:07;;;;;;;;;;;;;;;-146.27;100.00;64033.13;5093940;28;19947;-38
2022/06/27 02:59:35;;;;;;;;;;;;;;;-146.27;100.00;64033.13;5094055;28;20371;-38
2022/06/27 03:02:00;;;;;;;;;;;;;;;-146.27;100.00;64033.13;5093844;28;20444;-37
2022/06/27 03:04:26;;;;;;;;;;;;;;;-146.27;100.00;64033.13;5093994;28;19916;-38
2022/06/27 03:06:51;;;;;;;;;;;;;;;-146.27;100.00;64033.13;5099262;28;20014;-36
2022/06/27 03:09:17;;;;;;;;;;;;;;;-146.27;100.00;64033.13;5114204;28;19960;-38
2022/06/27 03:11:45;;;;;;;;;;;;;;;-146.27;100.00;64033.13;5114174;28;19916;-38
2022/06/27 03:14:10;;;;;;;;;;;;;;;-146.27;100.00;64033.13;5113874;28;20360;-36
2022/06/27 03:16:36;;;;;;;;;;;;;;;-146.27;100.00;64033.13;5098389;28;20007;-38
2022/06/27 03:19:03;;;;;;;;;;;;;;;-146.27;100.00;64033.13;5093527;28;19942;-38
2022/06/27 03:21:28;;;;;;;;;;;;;;;-146.27;100.00;64033.13;5093881;28;20007;-38
2022/06/27 03:23:54;;;;;;;;;;;;;;;-146.27;100.00;64033.13;5093687;28;19965;-37
2022/06/27 03:26:19;;;;;;;;;;;;;;;-146.27;100.00;64033.13;5093239;28;20031;-38
2022/06/27 03:28:45;;;;;;;;;;;;;;;-146.27;100.00;64033.13;5092605;28;19926;-37
2022/06/27 03:31:10;;;;;;;;;;;;;;;-146.27;100.00;64033.13;5073424;28;19916;-38
2022/06/27 03:33:36;;;;;;;;;;;;;;;-146.27;100.00;64033.13;5072521;28;20011;-37
2022/06/27 03:36:01;;;;;;;;;;;;;;;-146.27;100.00;64033.13;5072924;28;19936;-37
2022/06/27 03:38:27;;;;;;;;;;;;;;;-146.27;100.00;64033.13;5079489;28;19917;-37
2022/06/27 03:40:52;;;;;;;;;;;;;;;-146.27;100.00;64033.13;5096196;28;19955;-38
2022/06/27 03:43:17;;;;;;;;;;;;;;;-146.27;100.00;64033.13;5093039;28;19920;-49
2022/06/27 03:45:43;;;;;;;;;;;;;;;-146.27;100.00;64033.13;5092505;28;19916;-48
2022/06/27 03:48:08;;;;;;;;;;;;;;;-146.27;100.00;64033.13;5092419;28;20369;-48
2022/06/27 03:50:34;;;;;;;;;;;;;;;-146.27;100.00;64033.13;5092490;28;20000;-47
2022/06/27 03:52:59;;;;;;;;;;;;;;;-146.27;100.00;64033.13;5092438;28;19920;-48
2022/06/27 03:55:24;;;;;;;;;;;;;;;-146.27;100.00;64033.13;5092516;28;19919;-47
2022/06/27 03:57:54;;;;;;;;;;;;;;;-146.27;100.00;64033.13;5092541;28;19922;-37
2022/06/27 04:00:22;;;;;;;;;;;;;;;-146.27;100.00;64033.13;5090357;28;20117;-37
2022/06/27 04:02:47;;;;;;;;;;;;;;;-146.27;100.00;64033.13;5092576;28;19923;-36
2022/06/27 04:05:13;;;;;;;;;;;;;;;-146.27;100.00;64033.13;5097072;28;19916;-37
2022/06/27 04:07:39;;;;;;;;;;;;;;;-146.27;100.00;64033.13;5103993;28;19911;-38
2022/06/27 04:10:05;;;;;;;;;;;;;;;-146.27;100.00;64033.13;5112981;28;20010;-35
2022/06/27 04:12:30;;;;;;;;;;;;;;;-146.27;100.00;64033.13;5087682;28;20383;-48
2022/06/27 04:14:55;;;;;;;;;;;;;;;-146.27;100.00;64033.13;5098542;28;19915;-48
2022/06/27 04:17:20;;;;;;;;;;;;;;;-146.27;100.00;64033.13;5091859;28;19916;-50
2022/06/27 04:19:46;;;;;;;;;;;;;;;-146.27;100.00;64033.13;5092269;28;19916;-47
2022/06/27 04:22:11;;;;;;;;;;;;;;;-146.27;100.00;64033.13;5112744;28;20283;-49
2022/06/27 04:24:37;;;;;;;;;;;;;;;-146.27;100.00;64033.13;5110791;28;20268;-49
2022/06/27 04:27:03;;;;;;;;;;;;;;;-146.27;100.00;64033.13;5090435;28;19920;-37
2022/06/27 04:29:29;;;;;;;;;;;;;;;-146.27;100.00;64033.13;5075382;28;19915;-36
2022/06/27 04:31:55;;;;;;;;;;;;;;;-146.27;100.00;64033.13;5080778;28;19923;-37
2022/06/27 04:34:20;;;;;;;;;;;;;;;-146.27;100.00;64033.13;5091190;28;19916;-37
2022/06/27 04:36:46;;;;;;;;;;;;;;;-146.27;100.00;64033.13;5090569;28;19925;-38
2022/06/27 04:39:17;;;;;;;;;;;;;;;-146.27;100.00;64033.13;5090010;28;19912;-37
2022/06/27 04:41:43;;;;;;;;;;;;;;;-146.27;100.00;64033.13;5090445;28;20030;-38
2022/06/27 04:44:09;;;;;;;;;;;;;;;-146.27;100.00;64033.13;5090511;28;20382;-38
2022/06/27 04:46:34;;;;;;;;;;;;;;;-146.27;100.00;64033.13;5088254;28;19912;-38
2022/06/27 04:48:59;;;;;;;;;;;;;;;-146.27;100.00;64033.13;5087861;28;19923;-38
2022/06/27 04:51:24;;;;;;;;;;;;;;;-146.27;100.00;64033.13;5088030;28;19916;-37
2022/06/27 04:53:51;;;;;;;;;;;;;;;-146.27;100.00;64033.13;5087780;28;19912;-37
2022/06/27 04:56:17;;;;;;;;;;;;;;;-146.27;100.00;64033.13;5087881;28;19912;-38
2022/06/27 04:58:42;;;;;;;;;;;;;;;-146.27;100.00;64033.13;5088557;28;19969;-38
2022/06/27 05:01:08;;;;;;;;;;;;;;;-146.27;100.00;64033.13;5088988;28;19923;-37
2022/06/27 05:03:33;;;;;;;;;;;;;;;-146.27;100.00;64033.13;5089462;28;19919;-40
2022/06/27 05:05:59;;;;;;;;;;;;;;;-146.27;100.00;64033.13;5089680;28;19918;-37
2022/06/27 05:08:24;;;;;;;;;;;;;;;-146.27;100.00;64033.13;5091067;28;20394;-36
2022/06/27 05:10:49;;;;;;;;;;;;;;;-146.27;100.00;64033.13;5090820;28;19916;-38
2022/06/27 05:13:15;;;;;;;;;;;;;;;-146.27;100.00;64033.13;5091031;28;20011;-37
2022/06/27 05:15:40;;;;;;;;;;;;;;;-146.27;100.00;64033.13;5090731;28;19947;-37
2022/06/27 05:18:06;;;;;;;;;;;;;;;-146.27;100.00;64033.13;5090763;28;20332;-38
2022/06/27 05:20:31;;;;;;;;;;;;;;;-146.27;100.00;64033.13;5090478;28;19919;-38
2022/06/27 05:22:57;;;;;;;;;;;;;;;-146.27;100.00;64033.13;5090424;28;19912;-38
2022/06/27 05:25:22;;;;;;;;;;;;;;;-146.27;100.00;64033.13;5091111;28;19916;-36
2022/06/27 05:27:48;;;;;;;;;;;;;;;-146.27;100.00;64033.13;5090228;28;19912;-38
2022/06/27 05:30:15;;;;;;;;;;;;;;;-146.27;100.00;64033.13;5090236;28;19942;-38
2022/06/27 05:32:40;;;;;;;;;;;;;;;-146.27;100.00;64033.13;5090195;28;19916;-38
2022/06/27 05:35:06;;;;;;;;;;;;;;;-146.27;100.00;64033.13;5090926;28;19939;-37
2022/06/27 05:37:31;;;;;;;;;;;;;;;-146.27;100.00;64033.13;5090117;28;19932;-37
2022/06/27 05:39:57;;;;;;;;;;;;;;;-146.27;100.00;64033.13;5090213;28;20341;-37
2022/06/27 05:42:25;;;;;;;;;;;;;;;-146.27;100.00;64033.13;5090225;28;19916;-37
2022/06/27 05:44:50;;;;;;;;;;;;;;;-146.27;100.00;64033.13;5090632;28;19912;-38
2022/06/27 05:47:16;;;;;;;;;;;;;;;-146.27;100.00;64033.13;5090576;28;19912;-38
2022/06/27 05:49:43;;;;;;;;;;;;;;;-146.27;100.00;64033.13;5090567;28;20426;-37
2022/06/27 05:52:09;;;;;;;;;;;;;;;-146.27;100.00;64033.13;5089948;28;19926;-37
2022/06/27 05:54:35;;;;;;;;;;;;;;;-146.27;100.00;64033.13;5089737;28;20330;-37
2022/06/27 05:57:01;;;;;;;;;;;;;;;-146.27;100.00;64033.13;5093792;28;19964;-37
2022/06/27 05:59:26;;;;;;;;;;;;;;;-146.27;100.00;64033.13;5096516;28;19912;-37
2022/06/27 06:01:52;;;;;;;;;;;;;;;-146.27;100.00;64033.13;5096918;28;20007;-37
2022/06/27 06:04:18;;;;;;;;;;;;;;;-146.27;100.00;64033.13;5096576;28;19920;-38
2022/06/27 06:06:43;;;;;;;;;;;;;;;-146.27;100.00;64033.13;5101563;28;19912;-37
2022/06/27 06:09:09;;;;;;;;;;;;;;;-146.27;100.00;64033.13;5116906;28;19911;-37
2022/06/27 06:11:35;;;;;;;;;;;;;;;-146.27;100.00;64033.13;5117406;28;20447;-38
2022/06/27 06:14:00;;;;;;;;;;;;;;;-146.27;100.00;64033.13;5117224;28;20368;-37
2022/06/27 06:16:26;;;;;;;;;;;;;;;-146.27;100.00;64033.13;5103501;28;19919;-37
2022/06/27 06:18:54;;;;;;;;;;;;;;;-146.27;100.00;64033.13;5097097;28;19952;-38
2022/06/27 06:21:21;;;;;;;;;;;;;;;-146.27;100.00;64033.13;5097156;28;19989;-38
2022/06/27 06:23:46;;;;;;;;;;;;;;;-146.27;100.00;64033.13;5097178;28;20006;-38
2022/06/27 06:26:16;;;;;;;;;;;;;;;-146.27;100.00;64033.13;5096845;28;19955;-38
2022/06/27 06:28:42;;;;;;;;;;;;;;;-146.27;100.00;64033.13;5096923;28;20015;-37
2022/06/27 06:31:07;;;;;;;;;;;;;;;-146.27;100.00;64033.13;5096614;28;20022;-37
2022/06/27 06:33:32;;;;;;;;;;;;;;;-146.27;100.00;64033.13;5096599;28;19916;-38
2022/06/27 06:35:58;;;;;;;;;;;;;;;-146.27;100.00;64033.13;5096855;28;19924;-38
2022/06/27 06:38:23;;;;;;;;;;;;;;;-146.27;100.00;64033.13;5096870;28;19977;-38
2022/06/27 06:40:49;;;;;;;;;;;;;;;-146.27;100.00;64033.13;5096987;28;19912;-38
2022/06/27 06:43:16;;;;;;;;;;;;;;;-146.27;100.00;64033.13;5095990;28;20484;-37
2022/06/27 06:45:41;;;;;;;;;;;;;;;-146.27;100.00;64033.13;5096781;28;19916;-38
2022/06/27 06:48:08;;;;;;;;;;;;;;;-146.27;100.00;64033.13;5096218;28;20017;-37
2022/06/27 06:50:33;;;;;;;;;;;;;;;-146.27;100.00;64033.13;5096732;28;19951;-37
2022/06/27 06:52:59;;;;;;;;;;;;;;;-146.27;100.00;64033.13;5096603;28;19919;-36
2022/06/27 06:55:26;;;;;;;;;;;;;;;-146.27;100.00;64033.13;5096314;28;19920;-36
2022/06/27 06:57:51;;;;;;;;;;;;;;;-146.27;100.00;64033.13;5096115;28;20002;-37
2022/06/27 07:00:19;;;;;;;;;;;;;;;-146.27;100.00;64033.13;5096734;28;20402;-38
2022/06/27 07:02:44;;;;;;;;;;;;;;;-146.27;100.00;64033.13;5096892;28;19981;-38
2022/06/27 07:05:11;;;;;;;;;;;;;;;-146.27;100.00;64033.13;5096620;28;20356;-38
2022/06/27 07:07:41;;;;;;;;;;;;;;;-146.27;100.00;64033.13;5107193;28;19934;-37
2022/06/27 07:10:08;;;;;;;;;;;;;;;-146.27;100.00;64033.13;5113000;28;20299;-37
2022/06/27 07:12:33;;;;;;;;;;;;;;;-146.27;100.00;64033.13;5113771;28;20340;-38
2022/06/27 07:15:00;;;;;;;;;;;;;;;-146.27;100.00;64033.13;5112308;28;19933;-37
2022/06/27 07:17:27;;;;;;;;;;;;;;;-146.27;100.00;64033.13;5092918;28;20058;-37
2022/06/27 07:19:52;;;;;;;;;;;;;;;-146.27;100.00;64033.13;5092765;28;19919;-37
2022/06/27 07:22:19;;;;;;;;;;;;;;;-146.27;100.00;64033.13;5093200;28;19912;-37
2022/06/27 07:24:47;;;;;;;;;;;;;;;-146.27;100.00;64033.13;5092903;28;19920;-37
2022/06/27 07:27:14;;;;;;;;;;;;;;;-146.27;100.00;64033.13;5093159;28;19919;-37
2022/06/27 07:29:39;;;;;;;;;;;;;;;-146.27;100.00;64033.13;5092645;28;19912;-37
2022/06/27 07:32:08;;;;;;;;;;;;;;;-146.27;100.00;64033.13;5098493;28;19930;-37
2022/06/27 07:34:37;;;;;;;;;;;;;;;-146.27;100.00;64033.13;5094809;28;19931;-37
2022/06/27 07:37:03;;;;;;;;;;;;;;;-146.27;100.00;64033.13;5102393;28;20395;-37
2022/06/27 07:39:28;;;;;;;;;;;;;;;-146.27;100.00;64033.13;5103976;28;19963;-38
2022/06/27 07:41:54;;;;;;;;;;;;;;;-146.27;100.00;64033.13;5105111;28;20416;-38
2022/06/27 07:44:20;;;;;;;;;;;;;;;-146.27;100.00;64033.13;5096506;28;20307;-38
2022/06/27 07:46:45;;;;;;;;;;;;;;;-146.27;100.00;64033.13;5110016;28;19912;-37
2022/06/27 07:49:10;;;;;;;;;;;;;;;-146.27;100.00;64033.13;5098997;28;20292;-37
2022/06/27 07:51:36;;;;;;;;;;;;;;;-146.27;100.00;64033.13;5102444;28;19925;-38
2022/06/27 07:54:01;;;;;;;;;;;;;;;-146.27;100.00;64033.13;5100187;28;19911;-37
2022/06/27 07:56:27;;;;;;;;;;;;;;;-146.27;100.00;64033.13;5110611;28;19918;-38
2022/06/27 07:58:52;;;;;;;;;;;;;;;-146.27;100.00;64033.13;5092679;28;19977;-37
2022/06/27 08:01:19;;;;;;;;;;;;;;;-146.27;100.00;64033.13;5099975;28;19995;-37
2022/06/27 08:03:47;;;;;;;;;;;;;;;-146.27;100.00;64033.13;5101606;28;19912;-37
2022/06/27 08:06:15;;;;;;;;;;;;;;;-146.27;100.00;64033.13;5107498;28;19915;-37
2022/06/27 08:08:42;;;;;;;;;;;;;;;-146.27;100.00;64033.13;5094790;28;19928;-38
2022/06/27 08:11:08;;;;;;;;;;;;;;;-146.27;100.00;64033.13;5104088;28;20004;-36
2022/06/27 08:13:35;;;;;;;;;;;;;;;-146.27;100.00;64033.13;5092298;28;19916;-38
2022/06/27 08:16:01;;;;;;;;;;;;;;;-146.27;100.00;64033.13;5092033;28;20276;-37
2022/06/27 08:18:28;;;;;;;;;;;;;;;-146.27;100.00;64033.13;5092740;28;19912;-38
2022/06/27 08:20:53;;;;;;;;;;;;;;;-146.27;100.00;64033.13;5100048;28;19916;-38
2022/06/27 08:23:19;;;;;;;;;;;;;;;-146.27;100.00;64033.13;5106948;28;19923;-38
2022/06/27 08:25:47;;;;;;;;;;;;;;;-146.27;100.00;64033.13;5109715;28;19912;-38
2022/06/27 08:28:15;;;;;;;;;;;;;;;-146.27;100.00;64033.13;5100550;28;19919;-37
2022/06/27 08:30:41;;;;;;;;;;;;;;;-146.27;100.00;64033.13;5111688;28;19996;-37
2022/06/27 08:33:06;;;;;;;;;;;;;;;-146.27;100.00;64033.13;5110772;28;19912;-37
2022/06/27 08:35:32;;;;;;;;;;;;;;;-146.27;100.00;64033.13;5092303;28;20030;-37
2022/06/27 08:37:58;;;;;;;;;;;;;;;-146.27;100.00;64033.13;5091307;28;19916;-40
2022/06/27 08:40:24;;;;;;;;;;;;;;;-146.27;100.00;64033.13;5090754;28;19953;-38
2022/06/27 08:42:49;;;;;;;;;;;;;;;-146.27;100.00;64033.13;5091569;28;19912;-38
2022/06/27 08:45:15;;;;;;;;;;;;;;;-146.27;100.00;64033.13;5091384;28;20336;-38
2022/06/27 08:47:41;;;;;;;;;;;;;;;-146.27;100.00;64033.13;5091505;28;19916;-36
2022/06/27 08:50:08;;;;;;;;;;;;;;;-146.27;100.00;64033.13;5091564;28;20060;-37
2022/06/27 08:52:34;;;;;;;;;;;;;;;-146.27;100.00;64033.13;5090529;28;19916;-37
2022/06/27 08:55:01;;;;;;;;;;;;;;;-146.27;100.00;64033.13;5088720;28;19921;-38
2022/06/27 08:57:26;;;;;;;;;;;;;;;-146.27;100.00;64033.13;5090179;28;20011;-37
2022/06/27 08:59:53;;;;;;;;;;;;;;;-146.27;100.00;64033.13;5090069;28;20006;-38
2022/06/27 09:02:21;;;;;;;;;;;;;;;-146.27;100.00;64033.13;5089655;28;19923;-37
2022/06/27 09:04:59;;;;;;;;;;;;;;;-146.27;100.00;64033.13;5089892;28;20009;-37
2022/06/27 09:07:45;;;;;;;;;;;;;;;-146.27;100.00;64033.13;5101008;28;19916;-37
2022/06/27 09:10:26;;;;;;;;;;;;;;;-146.27;100.00;64033.13;5111479;28;19912;-38
2022/06/27 09:12:56;;;;;;;;;;;;;;;-146.27;100.00;64033.13;5111362;28;19919;-37
2022/06/27 09:15:22;;;;;;;;;;;;;;;-146.27;100.00;64033.13;5105772;28;20280;-37
2022/06/27 09:18:01;;;;;;;;;;;;;;;-146.27;100.00;64033.13;5090723;28;20071;-37
2022/06/27 09:20:44;;;;;;;;;;;;;;;-146.27;100.00;64033.13;5090818;28;19916;-37
2022/06/27 09:23:25;;;;;;;;;;;;;;;-146.27;100.00;64033.13;5090804;28;19920;-37
2022/06/27 09:25:56;;;;;;;;;;;;;;;-146.27;100.00;64033.13;5091156;28;19912;-38
2022/06/27 09:28:23;;;;;;;;;;;;;;;-146.27;100.00;64033.13;5090479;28;19916;-38
2022/06/27 09:30:49;;;;;;;;;;;;;;;-146.27;100.00;64033.13;5089530;28;19959;-38
2022/06/27 09:33:15;;;;;;;;;;;;;;;-146.27;100.00;64033.13;5090229;28;19912;-37
2022/06/27 09:35:41;;;;;;;;;;;;;;;-146.27;100.00;64033.13;5089214;28;19946;-36
2022/06/27 09:38:09;;;;;;;;;;;;;;;-146.27;100.00;64033.13;5090118;28;19928;-38
2022/06/27 09:40:35;;;;;;;;;;;;;;;-146.27;100.00;64033.13;5090291;28;19919;-37
2022/06/27 09:43:01;;;;;;;;;;;;;;;-146.27;100.00;64033.13;5090307;28;20463;-37
2022/06/27 09:45:28;;;;;;;;;;;;;;;-146.27;100.00;64033.13;5090624;28;20014;-37
2022/06/27 09:47:56;;;;;;;;;;;;;;;-146.27;100.00;64033.13;5090033;28;19926;-36
2022/06/27 09:50:22;;;;;;;;;;;;;;;-146.27;100.00;64033.13;5090152;28;19935;-38
2022/06/27 09:52:48;;;;;;;;;;;;;;;-146.27;100.00;64033.13;5090301;28;19956;-37
2022/06/27 09:55:14;;;;;;;;;;;;;;;-146.27;100.00;64033.13;5090581;28;19908;-37
2022/06/27 09:57:40;;;;;;;;;;;;;;;-146.27;100.00;64033.13;5090291;28;20307;-37
2022/06/27 10:00:08;;;;;;;;;;;;;;;-146.27;100.00;64033.13;5090266;28;20371;-37
2022/06/27 10:02:34;;;;;;;;;;;;;;;-146.27;100.00;64033.13;5090268;28;19916;-38
2022/06/27 10:05:00;;;;;;;;;;;;;;;-146.27;100.00;64033.13;5089070;28;20008;-38
2022/06/27 10:07:26;;;;;;;;;;;;;;;-146.27;100.00;64033.13;5090030;28;20054;-38
2022/06/27 10:09:52;;;;;;;;;;;;;;;-146.27;100.00;64033.13;5089958;28;19947;-38
2022/06/27 10:12:27;;;;;;;;;;;;;;;-146.27;100.00;64033.13;5090521;28;19955;-38
2022/06/27 10:15:11;;;;;;;;;;;;;;;-146.27;100.00;64033.13;5090366;28;19927;-38
2022/06/27 10:17:45;;;;;;;;;;;;;;;-146.27;100.00;64033.13;5090378;28;19928;-38
2022/06/27 10:20:26;;;;;;;;;;;;;;;-146.27;100.00;64033.13;5090032;28;19912;-38
2022/06/27 10:23:04;;;;;;;;;;;;;;;-146.27;100.00;64033.13;5090761;28;19913;-36
2022/06/27 10:25:29;;;;;;;;;;;;;;;-146.27;100.00;64033.13;5090428;28;19921;-38
2022/06/27 10:30:36;;;;;;;;;;;;;;;-146.27;100.00;64033.13;5089757;28;19916;-39
2022/06/27 10:33:21;;;;;;;;;;;;;;;-146.27;100.00;64033.13;5090231;28;20011;-37
2022/06/27 10:35:56;;;;;;;;;;;;;;;-146.27;100.00;64033.13;5089938;28;19967;-51
2022/06/27 10:38:40;;;;;;;;;;;;;;;-146.27;100.00;64033.13;5089723;28;19912;-51
2022/06/27 10:41:09;;;;;;;;;;;;;;;-146.27;100.00;64033.13;5089789;28;20551;-53
2022/06/27 10:43:43;;;;;;;;;;;;;;;-146.27;100.00;64033.13;5092458;28;19912;-52
2022/06/27 10:46:11;;;;;;;;;;;;;;;-146.27;100.00;64033.13;5093771;28;19923;-53
2022/06/27 10:48:37;;;;;;;;;;;;;;;-146.27;100.00;64033.13;5093779;28;19912;-50
2022/06/27 10:51:18;;;;;;;;;;;;;;;-146.27;100.00;64033.13;5093627;28;19977;-51
2022/06/27 10:53:44;;;;;;;;;;;;;;;-146.27;100.00;64033.13;5093704;28;19916;-52
2022/06/27 10:56:28;;;;;;;;;;;;;;;-146.27;100.00;64033.13;5093628;28;19912;-52
2022/06/27 10:58:53;;;;;;;;;;;;;;;-146.27;100.00;64033.13;5093170;28;19966;-51
2022/06/27 11:01:19;;;;;;;;;;;;;;;-146.27;100.00;64033.13;5093608;28;20351;-51
2022/06/27 11:03:44;;;;;;;;;;;;;;;-146.27;100.00;64033.13;5093164;28;20443;-54
2022/06/27 11:06:13;;;;;;;;;;;;;;;-146.27;100.00;64033.13;5093756;28;20006;-53
2022/06/27 11:08:39;;;;;;;;;;;;;;;-146.27;100.00;64033.13;5073146;28;20300;-51
2022/06/27 11:11:05;;;;;;;;;;;;;;;-146.27;100.00;64033.13;5073187;28;20285;-52
2022/06/27 11:13:36;;;;;;;;;;;;;;;-146.27;100.00;64033.13;5072978;28;20339;-53
2022/06/27 11:16:05;;;;;;;;;;;;;;;-146.27;100.00;64033.13;5083556;28;20357;-51
2022/06/27 11:18:45;;;;;;;;;;;;;;;-146.27;100.00;64033.13;5093168;28;19920;-50
2022/06/27 11:21:11;;;;;;;;;;;;;;;-146.27;100.00;64033.13;5093294;28;20388;-51
2022/06/27 11:23:49;;;;;;;;;;;;;;;-146.27;100.00;64033.13;5092959;28;19959;-51
2022/06/27 11:26:14;;;;;;;;;;;;;;;-146.27;100.00;64033.13;5093143;28;19912;-53
2022/06/27 11:34:08;;;;;;;;;;;;;;;-146.27;100.00;64033.13;5092836;28;19923;-53
2022/06/27 11:36:34;;;;;;;;;;;;;;;-146.27;100.00;64033.13;5092527;28;19928;-54
2022/06/27 11:38:59;;;;;;;;;;;;;;;-146.27;100.00;64033.13;5092561;28;20011;-53
2022/06/27 11:41:26;;;;;;;;;;;;;;;-146.27;100.00;64033.13;5092552;28;20019;-53
2022/06/27 11:44:02;;;;;;;;;;;;;;;-146.27;100.00;64033.13;5092659;28;19931;-52
2022/06/27 11:46:29;;;;;;;;;;;;;;;-146.27;100.00;64033.13;5092367;28;20443;-50
2022/06/27 11:48:58;;;;;;;;;;;;;;;-146.27;100.00;64033.13;5092662;28;19913;-51
2022/06/27 11:51:25;;;;;;;;;;;;;;;-146.27;100.00;64033.13;5092308;28;20351;-52
2022/06/27 11:53:52;;;;;;;;;;;;;;;-146.27;100.00;64033.13;5092113;28;20372;-52
2022/06/27 11:56:22;;;;;;;;;;;;;;;-146.27;100.00;64033.13;5092085;28;20030;-51
2022/06/27 11:58:52;;;;;;;;;;;;;;;-146.27;100.00;64033.13;5092440;28;19912;-53
2022/06/27 12:01:17;;;;;;;;;;;;;;;-146.27;100.00;64033.13;5092599;28;19912;-53
2022/06/27 12:04:03;;;;;;;;;;;;;;;-146.27;100.00;64033.13;5092389;28;19923;-52
2022/06/27 12:06:28;;;;;;;;;;;;;;;-146.27;100.00;64033.13;5094190;28;19912;-52
2022/06/27 12:09:03;;;;;;;;;;;;;;;-146.27;100.00;64033.13;5112438;28;19919;-53
2022/06/27 12:11:29;;;;;;;;;;;;;;;-146.27;100.00;64033.13;5112782;28;19962;-51
2022/06/27 12:14:00;;;;;;;;;;;;;;;-146.27;100.00;64033.13;5112324;28;19912;-52
2022/06/27 12:16:26;;;;;;;;;;;;;;;-146.27;100.00;64033.13;5098318;28;20383;-52
2022/06/27 12:18:51;;;;;;;;;;;;;;;-146.27;100.00;64033.13;5091837;28;19919;-52
2022/06/27 12:21:24;;;;;;;;;;;;;;;-146.27;100.00;64033.13;5092120;28;19924;-50
2022/06/27 12:23:50;;;;;;;;;;;;;;;-146.27;100.00;64033.13;5092131;28;19912;-52
2022/06/27 12:26:15;;;;;;;;;;;;;;;-146.27;100.00;64033.13;5092676;28;19919;-53
2022/06/27 12:28:41;;;;;;;;;;;;;;;-146.27;100.00;64033.13;5091008;28;19912;-53